createdAt,value
2022-12-18T00:01:36.065Z,59.59
2022-12-18T00:04:09.002Z,60.00
2022-12-18T00:06:36.189Z,59.62
2022-12-18T00:09:03.914Z,59.91
2022-12-18T00:11:31.665Z,59.84
2022-12-18T00:14:00.018Z,60.06
2022-12-18T00:16:27.743Z,59.82
2022-12-18T00:18:59.565Z,60.62
2022-12-18T00:21:26.943Z,60.04
2022-12-18T00:23:53.380Z,60.34
2022-12-18T00:26:22.933Z,60.54
2022-12-18T00:28:50.511Z,59.91
2022-12-18T00:31:20.007Z,60.33
2022-12-18T00:33:46.939Z,59.86
2022-12-18T00:36:18.231Z,59.83
2022-12-18T00:38:45.566Z,60.42
2022-12-18T00:41:13.981Z,60.28
2022-12-18T00:43:41.271Z,59.92
2022-12-18T00:46:07.994Z,60.67
2022-12-18T00:48:34.522Z,59.90
2022-12-18T00:51:00.864Z,59.95
2022-12-18T00:53:27.185Z,59.54
2022-12-18T00:55:53.533Z,60.18
2022-12-18T00:58:19.892Z,60.11
2022-12-18T01:00:46.331Z,60.32
2022-12-18T01:03:16.093Z,60.30
2022-12-18T01:05:42.521Z,60.14
2022-12-18T01:08:09.011Z,60.46
2022-12-18T01:10:35.322Z,60.40
2022-12-18T01:13:01.671Z,60.55
2022-12-18T01:15:28.032Z,60.21
2022-12-18T01:17:54.541Z,61.04
2022-12-18T01:20:21.539Z,60.68
2022-12-18T01:22:47.848Z,60.70
2022-12-18T01:25:14.186Z,60.57
2022-12-18T01:27:40.563Z,60.70
2022-12-18T01:30:07.586Z,60.89
2022-12-18T01:32:34.340Z,60.93
2022-12-18T01:35:00.695Z,61.03
2022-12-18T01:37:27.067Z,61.52
2022-12-18T01:39:55.141Z,61.28
2022-12-18T01:42:22.109Z,61.62
2022-12-18T01:45:04.825Z,61.52
2022-12-18T01:47:36.622Z,61.30
2022-12-18T01:50:11.207Z,61.11
2022-12-18T01:52:42.451Z,61.63
2022-12-18T01:55:10.722Z,61.56
2022-12-18T01:57:38.705Z,61.42
2022-12-18T02:00:12.225Z,61.83
2022-12-18T02:02:38.895Z,61.34
2022-12-18T02:05:06.066Z,61.77
2022-12-18T02:07:50.527Z,62.27
2022-12-18T02:10:23.064Z,61.86
2022-12-18T02:13:03.738Z,61.83
2022-12-18T02:15:30.123Z,62.11
2022-12-18T02:18:09.886Z,61.80
2022-12-18T02:20:38.166Z,62.00
2022-12-18T02:23:33.716Z,61.84
2022-12-18T02:26:06.049Z,62.22
2022-12-18T02:28:37.749Z,62.18
2022-12-18T02:31:09.950Z,62.29
2022-12-18T02:33:38.308Z,62.28
2022-12-18T02:36:06.329Z,62.29
2022-12-18T02:38:34.537Z,62.31
2022-12-18T02:41:01.666Z,62.39
2022-12-18T02:43:27.968Z,62.02
2022-12-18T02:46:00.581Z,62.08
2022-12-18T02:48:31.354Z,62.57
2022-12-18T02:51:09.251Z,61.96
2022-12-18T02:53:45.950Z,62.00
2022-12-18T02:56:27.165Z,62.52
2022-12-18T02:59:03.032Z,62.89
2022-12-18T03:01:34.522Z,62.69
2022-12-18T03:04:14.656Z,62.73
2022-12-18T03:06:45.840Z,62.52
2022-12-18T03:09:18.906Z,62.52
2022-12-18T03:12:10.443Z,62.73
2022-12-18T03:14:39.201Z,62.63
2022-12-18T03:17:13.804Z,63.11
2022-12-18T03:19:42.256Z,62.99
2022-12-18T03:22:10.614Z,62.60
2022-12-18T03:24:40.385Z,62.28
2022-12-18T03:27:12.449Z,62.40
2022-12-18T03:29:48.587Z,62.87
2022-12-18T03:32:26.752Z,62.41
2022-12-18T03:34:57.413Z,62.76
2022-12-18T03:37:26.573Z,62.50
2022-12-18T03:39:53.004Z,62.68
2022-12-18T03:42:32.341Z,62.84
2022-12-18T03:45:01.712Z,62.53
2022-12-18T03:47:52.432Z,63.32
2022-12-18T03:50:30.301Z,63.06
2022-12-18T03:53:20.417Z,63.43
2022-12-18T03:55:48.932Z,62.51
2022-12-18T03:58:20.348Z,62.46
2022-12-18T04:00:49.940Z,63.12
2022-12-18T04:03:17.654Z,62.92
2022-12-18T04:05:45.105Z,63.08
2022-12-18T04:08:11.584Z,63.19
2022-12-18T04:10:38.231Z,63.17
2022-12-18T04:13:04.758Z,63.41
2022-12-18T04:15:35.478Z,63.33
2022-12-18T04:18:02.733Z,63.23
2022-12-18T04:20:29.133Z,63.35
2022-12-18T04:22:55.520Z,63.28
2022-12-18T04:25:21.839Z,63.31
2022-12-18T04:27:48.167Z,62.70
2022-12-18T04:30:14.473Z,63.79
2022-12-18T04:32:40.774Z,63.31
2022-12-18T04:35:11.342Z,63.95
2022-12-18T04:37:37.662Z,63.57
2022-12-18T04:40:04.389Z,63.70
2022-12-18T04:42:30.717Z,63.76
2022-12-18T04:44:57.021Z,63.46
2022-12-18T04:47:23.386Z,63.74
2022-12-18T04:49:49.717Z,64.21
2022-12-18T04:52:16.053Z,64.42
2022-12-18T04:54:42.424Z,64.53
2022-12-18T04:57:08.751Z,63.99
2022-12-18T04:59:35.093Z,64.38
2022-12-18T05:02:01.468Z,63.98
2022-12-18T05:04:28.061Z,64.26
2022-12-18T05:06:54.420Z,64.32
2022-12-18T05:09:21.679Z,64.27
2022-12-18T05:11:48.074Z,64.17
2022-12-18T05:14:14.413Z,64.09
2022-12-18T05:16:40.983Z,64.53
2022-12-18T05:19:07.302Z,64.66
2022-12-18T05:21:33.661Z,64.42
2022-12-18T05:24:00.249Z,64.44
2022-12-18T05:26:26.571Z,64.36
2022-12-18T05:28:52.879Z,63.96
2022-12-18T05:31:19.268Z,64.38
2022-12-18T05:33:45.828Z,64.53
2022-12-18T05:36:12.622Z,64.44
2022-12-18T05:38:40.211Z,64.24
2022-12-18T05:41:06.995Z,63.65
2022-12-18T05:43:35.819Z,63.66
2022-12-18T05:46:06.810Z,63.84
2022-12-18T05:48:33.320Z,63.88
2022-12-18T05:51:06.381Z,63.94
2022-12-18T05:53:33.121Z,64.16
2022-12-18T05:56:05.122Z,63.75
2022-12-18T05:58:32.444Z,63.94
2022-12-18T06:00:59.085Z,64.21
2022-12-18T06:03:30.682Z,63.83
2022-12-18T06:05:59.994Z,63.72
2022-12-18T06:08:26.410Z,63.30
2022-12-18T06:10:53.556Z,63.41
2022-12-18T06:13:20.881Z,63.49
2022-12-18T06:15:47.244Z,63.15
2022-12-18T06:18:13.590Z,63.51
2022-12-18T06:20:42.213Z,62.91
2022-12-18T06:23:09.589Z,63.24
2022-12-18T06:25:39.207Z,63.17
2022-12-18T06:28:05.766Z,63.01
2022-12-18T06:30:32.177Z,63.43
2022-12-18T06:32:58.502Z,63.78
2022-12-18T06:35:24.836Z,63.73
2022-12-18T06:37:54.623Z,63.55
2022-12-18T06:40:21.021Z,63.67
2022-12-18T06:42:47.487Z,63.89
2022-12-18T06:45:16.885Z,63.59
2022-12-18T06:47:43.248Z,63.81
2022-12-18T06:50:09.833Z,63.88
2022-12-18T06:52:36.344Z,63.75
2022-12-18T06:55:02.864Z,63.92
2022-12-18T06:57:29.468Z,64.00
2022-12-18T06:59:55.831Z,63.87
2022-12-18T07:02:22.249Z,64.37
2022-12-18T07:04:51.823Z,63.71
2022-12-18T07:07:18.195Z,63.97
2022-12-18T07:09:44.527Z,63.90
2022-12-18T07:12:10.882Z,63.72
2022-12-18T07:14:37.244Z,64.02
2022-12-18T07:17:03.679Z,63.86
2022-12-18T07:19:30.489Z,64.08
2022-12-18T07:21:57.468Z,64.08
2022-12-18T07:24:23.775Z,64.05
2022-12-18T07:26:50.225Z,64.03
2022-12-18T07:29:16.742Z,63.88
2022-12-18T07:31:43.176Z,64.06
2022-12-18T07:34:14.477Z,64.29
2022-12-18T07:36:40.931Z,64.34
2022-12-18T07:39:07.435Z,64.27
2022-12-18T07:41:34.094Z,64.66
2022-12-18T07:44:00.384Z,64.05
2022-12-18T07:46:26.696Z,64.26
2022-12-18T07:48:53.061Z,64.77
2022-12-18T07:51:23.082Z,64.66
2022-12-18T07:53:52.277Z,64.94
2022-12-18T07:56:29.125Z,65.17
2022-12-18T07:58:57.236Z,65.30
2022-12-18T08:01:24.344Z,65.45
2022-12-18T08:03:52.494Z,65.32
2022-12-18T08:06:19.163Z,65.39
2022-12-18T08:08:45.521Z,65.33
2022-12-18T08:11:12.600Z,65.42
2022-12-18T08:13:39.315Z,65.88
2022-12-18T08:16:08.138Z,65.69
2022-12-18T08:18:36.552Z,65.97
2022-12-18T08:21:15.931Z,66.18
2022-12-18T08:23:43.626Z,66.44
2022-12-18T08:26:11.224Z,65.31
2022-12-18T08:28:38.437Z,66.57
2022-12-18T08:31:05.447Z,65.70
2022-12-18T08:33:32.348Z,66.01
2022-12-18T08:36:03.142Z,66.26
2022-12-18T08:38:29.522Z,65.76
2022-12-18T08:41:03.118Z,66.03
2022-12-18T08:43:48.162Z,65.25
2022-12-18T08:46:18.894Z,65.50
2022-12-18T08:48:45.303Z,65.32
2022-12-18T08:51:11.869Z,65.09
2022-12-18T08:53:38.982Z,65.67
2022-12-18T08:56:06.462Z,65.43
2022-12-18T08:58:32.822Z,65.48
2022-12-18T09:01:07.687Z,65.75
2022-12-18T09:03:34.246Z,65.21
2022-12-18T09:06:00.644Z,65.31
2022-12-18T09:08:27.761Z,65.27
2022-12-18T09:10:54.398Z,65.13
2022-12-18T09:13:21.281Z,64.95
2022-12-18T09:15:51.485Z,64.78
2022-12-18T09:18:19.494Z,65.06
2022-12-18T09:20:46.373Z,64.59
2022-12-18T09:23:13.489Z,64.49
2022-12-18T09:25:40.486Z,64.72
2022-12-18T09:28:15.980Z,64.43
2022-12-18T09:30:43.523Z,64.71
2022-12-18T09:33:09.920Z,64.44
2022-12-18T09:35:41.499Z,64.24
2022-12-18T09:38:12.214Z,64.58
2022-12-18T09:40:50.937Z,64.15
2022-12-18T09:43:40.471Z,63.96
2022-12-18T09:46:12.960Z,63.89
2022-12-18T09:48:43.543Z,64.19
2022-12-18T09:51:21.192Z,64.05
2022-12-18T09:53:54.602Z,64.13
2022-12-18T09:56:23.858Z,63.83
2022-12-18T09:58:59.058Z,63.52
2022-12-18T10:01:34.056Z,63.65
2022-12-18T10:04:06.688Z,63.90
2022-12-18T10:06:39.149Z,63.77
2022-12-18T10:09:33.641Z,63.35
2022-12-18T10:12:17.021Z,63.47
2022-12-18T10:14:52.642Z,63.27
2022-12-18T10:17:28.024Z,62.93
2022-12-18T10:20:00.429Z,62.88
2022-12-18T10:22:40.263Z,62.58
2022-12-18T10:25:27.838Z,62.69
2022-12-18T10:27:58.981Z,62.70
2022-12-18T10:30:26.529Z,62.02
2022-12-18T10:32:53.299Z,62.32
2022-12-18T10:35:23.350Z,62.03
2022-12-18T10:38:12.741Z,62.02
2022-12-18T10:41:03.354Z,61.54
2022-12-18T10:43:32.558Z,61.22
2022-12-18T10:46:01.057Z,61.05
2022-12-18T10:48:28.620Z,61.23
2022-12-18T10:51:13.328Z,61.35
2022-12-18T10:53:43.864Z,61.32
2022-12-18T10:56:11.693Z,61.33
2022-12-18T10:58:40.389Z,61.09
2022-12-18T11:01:18.866Z,60.91
2022-12-18T11:03:47.679Z,61.19
2022-12-18T11:06:25.486Z,60.84
2022-12-18T11:09:00.585Z,61.01
2022-12-18T11:11:27.498Z,60.93
2022-12-18T11:14:17.580Z,61.02
2022-12-18T11:17:03.212Z,60.96
2022-12-18T11:19:41.899Z,60.98
2022-12-18T11:22:28.857Z,60.73
2022-12-18T11:28:30.369Z,60.96
2022-12-18T11:31:20.001Z,60.65
2022-12-18T11:34:26.799Z,60.31
2022-12-18T11:36:50.615Z,60.66
2022-12-18T11:39:22.501Z,60.33
2022-12-18T11:42:34.119Z,60.05
2022-12-18T11:45:04.530Z,60.03
2022-12-18T11:48:05.325Z,59.63
2022-12-18T11:50:52.319Z,60.02
2022-12-18T11:53:19.858Z,59.56
2022-12-18T11:56:03.025Z,58.99
2022-12-18T11:58:50.697Z,59.40
2022-12-18T12:01:26.370Z,59.36
2022-12-18T12:03:56.080Z,58.90
2022-12-18T12:06:52.598Z,58.77
2022-12-18T12:09:50.892Z,58.76
2022-12-18T12:12:17.276Z,58.38
2022-12-18T12:14:59.463Z,58.36
2022-12-18T12:17:53.921Z,58.24
2022-12-18T12:20:40.633Z,58.58
2022-12-18T12:23:12.362Z,58.49
2022-12-18T12:25:51.468Z,58.17
2022-12-18T12:28:30.002Z,58.10
2022-12-18T12:31:22.034Z,58.26
2022-12-18T12:34:01.000Z,57.79
2022-12-18T12:36:37.516Z,57.59
2022-12-18T12:39:10.807Z,57.92
2022-12-18T12:42:05.705Z,57.61
2022-12-18T12:44:57.115Z,57.49
2022-12-18T12:47:36.676Z,57.40
2022-12-18T12:50:12.771Z,57.08
2022-12-18T12:52:53.945Z,57.17
2022-12-18T12:55:26.732Z,57.18
2022-12-18T12:58:04.590Z,56.68
2022-12-18T13:00:40.668Z,56.73
2022-12-18T13:03:30.039Z,56.70
2022-12-18T13:06:02.663Z,56.93
2022-12-18T13:08:33.910Z,56.50
2022-12-18T13:11:20.372Z,56.15
2022-12-18T13:13:53.093Z,56.29
2022-12-18T13:16:23.700Z,55.94
2022-12-18T13:18:55.555Z,55.99
2022-12-18T13:21:27.999Z,56.19
2022-12-18T13:23:56.693Z,55.83
2022-12-18T13:26:29.012Z,55.61
2022-12-18T13:28:58.004Z,54.93
2022-12-18T13:31:30.687Z,55.49
2022-12-18T13:34:26.283Z,55.38
2022-12-18T13:36:54.738Z,55.38
2022-12-18T13:39:28.637Z,55.06
2022-12-18T13:42:05.643Z,54.59
2022-12-18T13:44:40.207Z,54.48
2022-12-18T13:47:35.501Z,54.35
2022-12-18T13:50:13.554Z,54.46
2022-12-18T13:52:40.839Z,54.12
2022-12-18T13:55:17.099Z,54.73
2022-12-18T13:57:43.494Z,54.03
2022-12-18T14:00:26.105Z,54.35
2022-12-18T14:02:52.767Z,54.02
2022-12-18T14:05:28.023Z,54.36
2022-12-18T14:07:56.122Z,54.22
2022-12-18T14:10:42.238Z,54.06
2022-12-18T14:13:11.504Z,53.84
2022-12-18T14:15:48.590Z,54.19
2022-12-18T14:18:20.463Z,54.19
2022-12-18T14:20:52.521Z,53.54
2022-12-18T14:23:48.604Z,53.79
2022-12-18T14:26:34.053Z,53.78
2022-12-18T14:29:18.254Z,54.06
2022-12-18T14:31:44.994Z,53.94
2022-12-18T14:34:18.099Z,54.12
2022-12-18T14:36:56.193Z,53.75
2022-12-18T14:39:23.226Z,53.89
2022-12-18T14:41:50.830Z,53.85
2022-12-18T14:44:17.236Z,53.62
2022-12-18T14:46:46.890Z,53.87
2022-12-18T14:49:22.068Z,53.82
2022-12-18T14:52:03.569Z,53.59
2022-12-18T14:54:32.218Z,53.63
2022-12-18T14:57:18.934Z,53.77
2022-12-18T14:59:45.516Z,53.53
2022-12-18T15:02:22.934Z,53.76
2022-12-18T15:05:01.851Z,53.88
2022-12-18T15:07:40.165Z,53.44
2022-12-18T15:10:15.521Z,53.52
2022-12-18T15:12:44.204Z,53.32
2022-12-18T15:15:39.171Z,53.24
2022-12-18T15:18:08.528Z,53.22
2022-12-18T15:20:53.446Z,53.39
2022-12-18T15:23:30.736Z,53.40
2022-12-18T15:26:02.355Z,53.17
2022-12-18T15:28:50.613Z,53.33
2022-12-18T15:31:17.900Z,53.51
2022-12-18T15:33:47.011Z,53.37
2022-12-18T15:36:17.598Z,53.05
2022-12-18T15:38:53.312Z,52.60
2022-12-18T15:41:24.754Z,52.78
2022-12-18T15:43:53.130Z,52.79
2022-12-18T15:46:22.432Z,52.83
2022-12-18T15:48:59.767Z,53.13
2022-12-18T15:51:36.528Z,52.76
2022-12-18T15:54:05.760Z,52.74
2022-12-18T15:56:50.804Z,52.55
2022-12-18T15:59:19.717Z,52.86
2022-12-18T16:01:49.217Z,52.65
2022-12-18T16:04:18.191Z,52.58
2022-12-18T16:07:13.177Z,52.32
2022-12-18T16:09:30.884Z,52.31
2022-12-18T16:11:57.214Z,52.44
2022-12-18T16:14:28.909Z,52.06
2022-12-18T16:16:58.866Z,52.30
2022-12-18T16:19:25.935Z,51.96
2022-12-18T16:21:55.770Z,51.74
2022-12-18T16:24:25.058Z,52.07
2022-12-18T16:26:53.141Z,52.00
2022-12-18T16:29:27.766Z,51.88
2022-12-18T16:31:58.600Z,51.84
2022-12-18T16:34:29.037Z,52.04
2022-12-18T16:37:05.166Z,51.77
2022-12-18T16:39:32.902Z,52.08
2022-12-18T16:41:59.822Z,51.89
2022-12-18T16:44:28.322Z,51.57
2022-12-18T16:46:54.777Z,51.40
2022-12-18T16:49:22.314Z,51.77
2022-12-18T16:51:48.762Z,51.67
2022-12-18T16:54:19.016Z,51.31
2022-12-18T16:56:49.685Z,51.18
2022-12-18T16:59:16.185Z,51.56
2022-12-18T17:01:42.573Z,51.21
2022-12-18T17:04:09.528Z,51.46
2022-12-18T17:06:40.342Z,51.98
2022-12-18T17:09:09.191Z,51.36
2022-12-18T17:11:36.262Z,51.53
2022-12-18T17:14:14.274Z,51.52
2022-12-18T17:16:40.860Z,51.26
2022-12-18T17:19:10.928Z,51.50
2022-12-18T17:21:42.495Z,51.27
2022-12-18T17:24:08.829Z,51.57
2022-12-18T17:26:35.146Z,51.12
2022-12-18T17:29:01.485Z,51.59
2022-12-18T17:31:29.511Z,51.10
2022-12-18T17:33:56.729Z,51.28
2022-12-18T17:36:23.887Z,51.02
2022-12-18T17:38:55.789Z,51.14
2022-12-18T17:41:23.088Z,51.27
2022-12-18T17:43:55.690Z,51.23
2022-12-18T17:46:22.576Z,51.17
2022-12-18T17:48:49.110Z,51.47
2022-12-18T17:51:16.623Z,51.01
2022-12-18T17:53:43.927Z,51.50
2022-12-18T17:56:16.027Z,51.46
2022-12-18T17:58:43.511Z,51.16
2022-12-18T18:01:13.845Z,51.33
2022-12-18T18:03:43.216Z,51.45
2022-12-18T18:06:10.197Z,51.21
2022-12-18T18:08:37.060Z,51.58
2022-12-18T18:11:27.150Z,51.28
2022-12-18T18:14:02.924Z,51.19
2022-12-18T18:16:33.237Z,51.62
2022-12-18T18:19:01.843Z,51.46
2022-12-18T18:21:29.198Z,51.49
2022-12-18T18:23:58.681Z,51.31
2022-12-18T18:26:26.113Z,51.59
2022-12-18T18:28:54.976Z,51.72
2022-12-18T18:31:26.316Z,51.62
2022-12-18T18:33:53.117Z,51.29
2022-12-18T18:36:19.437Z,51.31
2022-12-18T18:38:48.547Z,51.30
2022-12-18T18:41:15.553Z,51.18
2022-12-18T18:43:42.207Z,51.09
2022-12-18T18:46:12.446Z,51.23
2022-12-18T18:48:40.147Z,51.10
2022-12-18T18:51:12.159Z,51.46
2022-12-18T18:53:44.394Z,51.49
2022-12-18T18:59:00.000Z,51.59
2022-12-18T19:01:26.755Z,51.32
2022-12-18T19:03:54.235Z,51.43
2022-12-18T19:06:24.221Z,51.23
2022-12-18T19:08:51.336Z,51.19
2022-12-18T19:11:36.931Z,51.52
2022-12-18T19:14:05.873Z,51.70
2022-12-18T19:16:33.688Z,51.56
2022-12-18T19:19:02.230Z,51.39
2022-12-18T19:21:29.051Z,51.52
2022-12-18T19:24:05.275Z,51.46
2022-12-18T19:26:31.825Z,51.42
2022-12-18T19:29:05.758Z,51.42
2022-12-18T19:31:36.159Z,51.57
2022-12-18T19:34:05.223Z,51.40
2022-12-18T19:36:32.771Z,51.46
2022-12-18T19:39:00.926Z,51.37
2022-12-18T19:41:31.375Z,51.48
2022-12-18T19:43:59.784Z,51.48
2022-12-18T19:46:26.303Z,51.58
2022-12-18T19:48:52.720Z,51.43
2022-12-18T19:51:24.729Z,51.49
2022-12-18T19:53:57.867Z,51.50
2022-12-18T19:56:26.815Z,51.84
2022-12-18T19:58:53.880Z,51.44
2022-12-18T20:01:22.299Z,51.33
2022-12-18T20:03:52.419Z,51.26
2022-12-18T20:06:34.622Z,51.41
2022-12-18T20:09:06.679Z,51.56
2022-12-18T20:11:41.441Z,51.44
2022-12-18T20:14:12.522Z,51.63
2022-12-18T20:16:39.495Z,51.46
2022-12-18T20:19:06.904Z,51.63
2022-12-18T20:21:33.817Z,51.46
2022-12-18T20:24:01.347Z,51.71
2022-12-18T20:26:28.050Z,51.80
2022-12-18T20:28:55.151Z,51.80
2022-12-18T20:31:22.157Z,52.04
2022-12-18T20:33:49.948Z,51.91
2022-12-18T20:36:21.337Z,52.07
2022-12-18T20:38:51.919Z,52.00
2022-12-18T20:41:22.636Z,52.35
2022-12-18T20:43:49.283Z,51.97
2022-12-18T20:46:17.258Z,52.56
2022-12-18T20:48:44.715Z,52.40
2022-12-18T20:51:13.430Z,52.42
2022-12-18T20:53:41.872Z,52.59
2022-12-18T20:56:15.150Z,52.62
2022-12-18T20:58:46.621Z,52.93
2022-12-18T21:01:16.250Z,52.69
2022-12-18T21:03:44.407Z,53.07
2022-12-18T21:06:10.876Z,52.89
2022-12-18T21:08:37.603Z,52.92
2022-12-18T21:11:36.067Z,53.08
2022-12-18T21:14:04.245Z,53.21
2022-12-18T21:16:31.269Z,53.21
2022-12-18T21:18:57.957Z,53.34
2022-12-18T21:21:26.867Z,53.23
2022-12-18T21:23:54.108Z,53.27
2022-12-18T21:26:23.009Z,53.50
2022-12-18T21:28:58.038Z,53.68
2022-12-18T21:31:27.288Z,53.46
2022-12-18T21:33:58.359Z,53.64
2022-12-18T21:36:29.572Z,53.61
2022-12-18T21:38:56.443Z,53.73
2022-12-18T21:41:43.560Z,53.89
2022-12-18T21:44:15.690Z,53.92
2022-12-18T21:46:48.857Z,53.81
2022-12-18T21:49:21.201Z,53.80
2022-12-18T21:51:49.557Z,53.68
2022-12-18T21:54:16.650Z,53.42
2022-12-18T21:56:49.802Z,53.74
2022-12-18T21:59:19.097Z,53.91
2022-12-18T22:01:45.818Z,53.81
2022-12-18T22:04:12.931Z,54.09
2022-12-18T22:06:42.513Z,54.17
2022-12-18T22:09:11.264Z,54.25
2022-12-18T22:11:38.293Z,54.14
2022-12-18T22:14:04.922Z,54.30
2022-12-18T22:16:31.247Z,54.17
2022-12-18T22:18:57.596Z,54.26
2022-12-18T22:21:29.884Z,54.81
2022-12-18T22:24:02.114Z,54.82
2022-12-18T22:26:35.063Z,55.05
2022-12-18T22:29:23.846Z,55.12
2022-12-18T22:31:50.487Z,55.11
2022-12-18T22:34:21.922Z,55.13
2022-12-18T22:36:49.589Z,55.07
2022-12-18T22:39:24.360Z,55.13
2022-12-18T22:41:51.991Z,55.38
2022-12-18T22:44:18.650Z,55.58
2022-12-18T22:46:49.401Z,55.61
2022-12-18T22:49:27.129Z,55.72
2022-12-18T22:51:54.438Z,56.06
2022-12-18T22:54:21.961Z,56.12
2022-12-18T22:56:48.458Z,56.17
2022-12-18T22:59:19.869Z,56.24
2022-12-18T23:01:47.597Z,56.38
2022-12-18T23:04:15.676Z,56.47
2022-12-18T23:06:44.854Z,56.40
2022-12-18T23:09:15.245Z,56.55
2022-12-18T23:11:41.794Z,56.58
2022-12-18T23:14:08.259Z,56.59
2022-12-18T23:16:35.311Z,56.57
2022-12-18T23:19:03.027Z,57.05
2022-12-18T23:21:29.419Z,57.17
2022-12-18T23:23:57.087Z,57.06
2022-12-18T23:26:25.013Z,57.28
2022-12-18T23:28:53.010Z,57.30
2022-12-18T23:31:25.335Z,57.28
2022-12-18T23:33:53.266Z,57.71
2022-12-18T23:36:20.760Z,57.47
2022-12-18T23:38:52.535Z,57.85
2022-12-18T23:41:21.934Z,57.80
2022-12-18T23:43:48.902Z,57.99
2022-12-18T23:46:18.212Z,58.04
2022-12-18T23:48:45.167Z,58.13
2022-12-18T23:51:13.098Z,58.34
2022-12-18T23:53:40.245Z,58.55
2022-12-18T23:56:08.475Z,58.81
2022-12-18T23:58:35.838Z,58.69
